METAR AND TAF INFORMATION
METAR FOR LEGR
ADDS - METARS form results

(0815 UTC 18 September 2021)
Data provider http://aviationweather.gov/metar/data/
 
METAR text: LEGR 180800Z 00000KT CAVOK 17/13 Q1017
Conditions at: LEGR (GRANADA AIRPORT , ES) observed 0800 UTC 18 September 2021
Temperature: 17.0°C (63°F)
Dewpoint: 13.0°C (55°F) [RH = 77%]
Pressure (altimeter): 30.03 inches Hg (1017.0 mb)
Winds: calm
Visibility: 6 or more miles (10+ km)
Ceiling: ceiling and visibility are OK
Clouds: unknown
Weather: no significant weather observed at this time

METAR text: LEGR 180730Z VRB01KT CAVOK 16/13 Q1017
Conditions at: LEGR (GRANADA AIRPORT , ES) observed 0730 UTC 18 September 2021
Temperature: 16.0°C (61°F)
Dewpoint: 13.0°C (55°F) [RH = 82%]
Pressure (altimeter): 30.03 inches Hg (1017.0 mb)
Winds: variable direction winds at 1 MPH (1 knots; 0.5 m/s)
Visibility: 6 or more miles (10+ km)
Ceiling: ceiling and visibility are OK
Clouds: unknown
Weather: no significant weather observed at this time

Forecast for: LEGR (GRANADA AIRPORT , ES)
Text: TAF LEGR 180500Z 1806/1906 VRB02KT CAVOK TX31/1815Z TN13/1906Z
Forecast period: 0600 to 1100 UTC 18 September 2021
Forecast type: FROM: standard forecast or significant change
Winds: variable direction winds at 2 MPH (2 knots; 1.0 m/s)
Visibility: 6 or more miles (10+ km)
Ceiling: unknown
Clouds: missing
Weather: no significant weather forecast for this period
Text: BECMG 1811/1814 29010KT
Forecast period: 1100 to 1900 UTC 18 September 2021
Forecast type: BECOMING: Conditions expected to become as follows by 1400 UTC 18 September 2021
Winds: from the WNW (290 degrees) at 12 MPH (10 knots; 5.1 m/s)
Visibility: 6 or more miles (10+ km)
Ceiling: unknown
Clouds: missing
Weather: no significant weather forecast for this period
Text: BECMG 1819/1821 23004KT
Forecast period: 1900 UTC 18 September 2021 to 0600 UTC 19 September 2021
Forecast type: BECOMING: Conditions expected to become as follows by 2100 UTC 18 September 2021
Winds: from the SW (230 degrees) at 5 MPH (4 knots; 2.1 m/s)
Visibility: 6 or more miles (10+ km)
Ceiling: unknown
Clouds: missing
Weather: no significant weather forecast for this period

 AIRPORT MAP

 RUNWAY INFORMATION
Runway 09 Runway length 9514 ft Runway width 148 ft
Runway elevation 1842 ft Runway displaced threshold 0 ft Runway heading 90
Runway 27 Runway length 9514 ft Runway width 148 ft
Runway elevation 1860 ft Runway displaced threshold 0 ft Runway heading 270

 AIRPORT FREQUENCIES
Type GND Name GND Frequency 121.7 MHZ
Type TWR Name TWR Frequency 118.85 MHZ

 AIRPORT NEAR NAVIGATION AIDS
Type VOR-DME Name Granada Frequency 113400 KHZ



Powered by Virtual Airlines Manager [v2.6.2]